West Vancouver, Canada
Current Conditions -  °F | °C
As of 6:04 AM on Monday 20 Oct 2014 (Local Time) from CYVR Reporting Station
Rain Showers Rain Showers  
Wind Chill: 57°   Ceiling: 8200
Heat Index: 57°   Visibility: 12mi
Dew Point: 55°   Wind: 8mph
Humidity: 94%   Direction: 130°SE
Pressure: 29.66"   Gusts: NA
Location:  49.33°N, 123.16°W
Report Text: CYVR 201304Z 13007KT 12SM -SHRA FEW015 OVC082 14/13 A2966 RMK CF2AC6 SLP045 DENSITY ALT 100FT
Loading
Personal Weather Stations






























Interactive Weather Map
Tropical Storm Tracking
New forecast layout! Learn more

10-Day Weather Forecast

Advertisements
Track Severe Weather on mobile